Un Karadeniz — TCTD3 — position and weather

sailwx.info

Track history (hours):
 
Tides and Currents Weather Stations Pressure Air Temp Water Temp Dewpoint Dewpoint Depression Visibility Wind Speed Wind Dir Waves Ship Positions

Un Karadeniz

Last reported at 2016-Jun-29 20:32 UTC. Time now 2016-Jun-29 21:53 UTC.
Position N 45°38' E 013°45'.

Length 193 m; draft 7 m.

Type: Ship (hazmat cat A). MMSI: 271002571.

Date/timePositionNaut miles runAvg speedWind from/ knotsBaromVisibWave heightAir tempDewpointWater temp
2016-Jun-29 20:32N 45°38' E 013°45'0 0.0
2016-Jun-29 17:33N 45°38' E 013°45'0 0.0
2016-Jun-29 16:33N 45°38' E 013°45'3 3.3
2016-Jun-29 15:33N 45°39' E 013°40'1918.6
2016-Jun-29 14:33N 45°27' E 013°20'1818.5
2016-Jun-29 13:33N 45°08' E 013°18'2019.7
2016-Jun-29 12:33N 44°50' E 013°30'2019.7
2016-Jun-29 11:32N 44°33' E 013°45'1919.6
2016-Jun-29 10:33N 44°17' E 013°60'4119.5
2016-Jun-29 08:26N 43°45' E 014°35'2119.4
2016-Jun-29 07:21N 43°28' E 014°53'56417.7
2016-Jun-27 23:33N 36°45' E 023°30'2020.2
2016-Jun-27 22:33N 37°02' E 023°44'2120.6
2016-Jun-27 21:33N 37°20' E 023°57'2019.8
2016-Jun-27 20:33N 37°35' E 024°12'2019.9
2016-Jun-27 19:34N 37°51' E 024°28'  
2016-Jun-25 15:14N 37°57' E 024°39'1418.5
2016-Jun-25 14:28N 37°44' E 024°30'1918.6
2016-Jun-25 13:26N 37°29' E 024°17'1919.4
2016-Jun-25 12:27N 37°14' E 024°02'2419.5
2016-Jun-25 11:12N 36°55' E 023°42'1519.4
2016-Jun-25 10:25N 36°43' E 023°30'1719.6
2016-Jun-25 09:32N 36°29' E 023°17'12517.9
2016-Jun-25 02:33N 37°25' E 020°57'6520.0
2016-Jun-24 23:18N 38°17' E 020°09'1520.3
2016-Jun-24 22:33N 38°30' E 019°59'49120.5
2016-Jun-23 22:33N 44°59' E 013°16'1919.4
2016-Jun-23 21:33N 45°16' E 013°04'1817.5
2016-Jun-23 20:33N 45°31' E 013°17'12 0.4
2016-Jun-22 11:33N 45°19' E 013°14'2019.9
2016-Jun-22 10:33N 45°00' E 013°23'2019.8
2016-Jun-22 09:33N 44°43' E 013°37'38919.4
2016-Jun-21 13:34N 39°38' E 019°03'10819.6
2016-Jun-21 08:04N 38°07' E 020°18'1019.1
2016-Jun-21 07:34N 37°59' E 020°24'16417.8
2016-Jun-20 22:21N 36°29' E 023°16'1620.6
2016-Jun-20 21:33N 36°42' E 023°27'2120.8
2016-Jun-20 20:33N 36°60' E 023°42'2120.8
2016-Jun-20 19:33N 37°17' E 023°56'4220.7
2016-Jun-20 17:33N 37°50' E 024°27'8220.4
2016-Jun-20 13:31N 39°02' E 025°19'4120.2
2016-Jun-20 11:31N 39°38' E 025°43'1920.3
2016-Jun-20 10:33N 39°55' E 025°55'  
Track history (hours):
 
Tides and Currents Weather Stations Pressure Air Temp Water Temp Dewpoint Dewpoint Depression Visibility Wind Speed Wind Dir Waves Ship Positions

Un Karadeniz

Last reported at 2016-Jun-29 20:32 UTC. Time now 2016-Jun-29 21:53 UTC.
Position N 45°38' E 013°45'.

Length 193 m; draft 7 m.

Type: Ship (hazmat cat A). MMSI: 271002571.

Date/timePositionNaut miles runAvg speedWind from/ knotsBaromVisibWave heightAir tempDewpointWater temp
2016-Jun-29 20:32N 45°38' E 013°45'0 0.0
2016-Jun-29 17:33N 45°38' E 013°45'0 0.0
2016-Jun-29 16:33N 45°38' E 013°45'3 3.3
2016-Jun-29 15:33N 45°39' E 013°40'1918.6
2016-Jun-29 14:33N 45°27' E 013°20'1818.5
2016-Jun-29 13:33N 45°08' E 013°18'2019.7
2016-Jun-29 12:33N 44°50' E 013°30'2019.7
2016-Jun-29 11:32N 44°33' E 013°45'1919.6
2016-Jun-29 10:33N 44°17' E 013°60'4119.5
2016-Jun-29 08:26N 43°45' E 014°35'2119.4
2016-Jun-29 07:21N 43°28' E 014°53'56417.7
2016-Jun-27 23:33N 36°45' E 023°30'2020.2
2016-Jun-27 22:33N 37°02' E 023°44'2120.6
2016-Jun-27 21:33N 37°20' E 023°57'2019.8
2016-Jun-27 20:33N 37°35' E 024°12'2019.9
2016-Jun-27 19:34N 37°51' E 024°28'  
2016-Jun-25 15:14N 37°57' E 024°39'1418.5
2016-Jun-25 14:28N 37°44' E 024°30'1918.6
2016-Jun-25 13:26N 37°29' E 024°17'1919.4
2016-Jun-25 12:27N 37°14' E 024°02'2419.5
2016-Jun-25 11:12N 36°55' E 023°42'1519.4
2016-Jun-25 10:25N 36°43' E 023°30'1719.6
2016-Jun-25 09:32N 36°29' E 023°17'12517.9
2016-Jun-25 02:33N 37°25' E 020°57'6520.0
2016-Jun-24 23:18N 38°17' E 020°09'1520.3
2016-Jun-24 22:33N 38°30' E 019°59'49120.5
2016-Jun-23 22:33N 44°59' E 013°16'1919.4
2016-Jun-23 21:33N 45°16' E 013°04'1817.5
2016-Jun-23 20:33N 45°31' E 013°17'12 0.4
2016-Jun-22 11:33N 45°19' E 013°14'2019.9
2016-Jun-22 10:33N 45°00' E 013°23'2019.8
2016-Jun-22 09:33N 44°43' E 013°37'38919.4
2016-Jun-21 13:34N 39°38' E 019°03'10819.6
2016-Jun-21 08:04N 38°07' E 020°18'1019.1
2016-Jun-21 07:34N 37°59' E 020°24'16417.8
2016-Jun-20 22:21N 36°29' E 023°16'1620.6
2016-Jun-20 21:33N 36°42' E 023°27'2120.8
2016-Jun-20 20:33N 36°60' E 023°42'2120.8
2016-Jun-20 19:33N 37°17' E 023°56'4220.7
2016-Jun-20 17:33N 37°50' E 024°27'8220.4
2016-Jun-20 13:31N 39°02' E 025°19'4120.2
2016-Jun-20 11:31N 39°38' E 025°43'1920.3
2016-Jun-20 10:33N 39°55' E 025°55'  

Dump ship's entire track history